Time;durP1;ratioP1;P1;durP2;ratioP2;P2;SDS_P1;SDS_P2;PMS_P1;PMS_P2;Temp;Humidity;BMP_temperature;BMP_pressure;BME280_temperature;BME280_humidity;BME280_pressure;Samples;Min_cycle;Max_cycle;Signal;HPM_P1;HPM_P2
2023/03/09 00:01:33;;;;;;;5.30;3.40;;;;;;;-143.84;44.36;45094.78;5080304;28;20505;-79
2023/03/09 00:04:01;;;;;;;3.80;3.40;;;;;;;-143.84;44.70;45111.91;5081898;28;20448;-78
2023/03/09 00:06:29;;;;;;;5.57;3.40;;;;;;;-143.84;44.81;45115.72;5084602;28;20513;-79
2023/03/09 00:08:56;;;;;;;4.93;3.77;;;;;;;-143.84;44.91;45117.63;5085274;28;20462;-79
2023/03/09 00:11:24;;;;;;;3.73;3.43;;;;;;;-143.84;44.85;45081.44;5083615;28;20833;-79
2023/03/09 00:13:53;;;;;;;3.60;3.30;;;;;;;-143.84;45.17;45106.19;5071914;28;20490;-79
2023/03/09 00:16:22;;;;;;;10.73;3.60;;;;;;;-143.84;45.57;45092.88;5072011;28;20483;-78
2023/03/09 00:18:51;;;;;;;4.90;4.13;;;;;;;-143.84;45.53;45129.03;5072049;28;21168;-78
2023/03/09 00:21:34;;;;;;;5.47;4.90;;;;;;;-143.84;45.69;45123.34;5077683;28;20448;-79
2023/03/09 00:24:02;;;;;;;3.50;3.20;;;;;;;-143.84;45.63;45144.28;5085543;28;20511;-78
2023/03/09 00:26:30;;;;;;;7.87;3.97;;;;;;;-143.84;45.75;45104.28;5086701;28;20449;-78
2023/03/09 00:28:58;;;;;;;6.87;4.83;;;;;;;-143.84;45.55;45100.47;5070126;28;20973;-78
2023/03/09 00:31:25;;;;;;;6.00;3.87;;;;;;;-143.84;45.72;45115.72;5088371;28;21458;-78
2023/03/09 00:33:52;;;;;;;5.90;3.50;;;;;;;-143.84;45.50;45119.53;5090536;28;20456;-78
2023/03/09 00:36:20;;;;;;;3.93;3.27;;;;;;;-143.84;45.84;45117.63;5091674;28;20519;-78
2023/03/09 00:38:51;;;;;;;7.67;3.43;;;;;;;-143.84;45.78;45102.38;5091515;28;20439;-78
2023/03/09 00:41:19;;;;;;;4.60;4.20;;;;;;;-143.84;45.44;45110.00;5092405;28;20549;-78
2023/03/09 00:43:46;;;;;;;4.77;4.20;;;;;;;-143.84;45.18;45111.91;5089598;28;20446;-78
2023/03/09 00:46:15;;;;;;;8.73;4.07;;;;;;;-143.84;45.33;45100.47;5083490;28;20505;-78
2023/03/09 00:48:43;;;;;;;6.40;4.60;;;;;;;-143.84;45.47;45108.09;5087824;28;20445;-78
2023/03/09 00:51:11;;;;;;;4.30;3.90;;;;;;;-143.84;45.69;45125.22;5078157;28;20450;-78
2023/03/09 00:53:39;;;;;;;7.40;4.13;;;;;;;-143.84;45.59;45102.38;5077266;28;20448;-78
2023/03/09 00:56:08;;;;;;;4.53;4.07;;;;;;;-143.84;46.04;45077.63;5077770;28;20475;-78
2023/03/09 00:58:35;;;;;;;4.93;4.43;;;;;;;-143.84;46.35;45110.00;5084057;28;20847;-78
2023/03/09 01:01:07;;;;;;;3.53;3.33;;;;;;;-143.84;46.97;45090.97;5080815;28;20980;-78
2023/03/09 01:03:36;;;;;;;3.93;3.57;;;;;;;-143.84;47.56;45108.09;5075209;28;20531;-78
2023/03/09 01:06:03;;;;;;;6.00;2.80;;;;;;;-143.84;48.26;45130.94;5075484;28;20465;-78
2023/03/09 01:08:31;;;;;;;5.27;3.27;;;;;;;-143.84;49.31;45096.66;5075485;28;20436;-78
2023/03/09 01:10:58;;;;;;;5.70;3.03;;;;;;;-143.84;50.13;45121.44;5075167;28;20505;-78
2023/03/09 01:13:25;;;;;;;3.30;2.57;;;;;;;-143.84;50.75;45125.22;5075181;28;20435;-78
2023/03/09 01:15:53;;;;;;;3.60;3.27;;;;;;;-143.84;50.65;45104.28;5074979;28;21381;-78
2023/03/09 01:18:20;;;;;;;3.50;2.87;;;;;;;-143.84;51.04;45094.78;5074536;28;20445;-78
2023/03/09 01:20:49;;;;;;;7.13;3.50;;;;;;;-143.84;51.07;45104.28;5073094;28;20444;-78
2023/03/09 01:23:16;;;;;;;3.20;2.90;;;;;;;-143.84;51.16;45138.56;5079036;28;20497;-78
2023/03/09 01:25:43;;;;;;;3.20;2.90;;;;;;;-143.84;51.56;45110.00;5083393;28;20454;-78
2023/03/09 01:28:11;;;;;;;5.40;3.33;;;;;;;-143.84;52.05;45108.09;5082027;28;20515;-78
2023/03/09 01:30:38;;;;;;;3.50;2.97;;;;;;;-143.84;52.81;45106.19;5085685;28;20438;-78
2023/03/09 01:33:06;;;;;;;4.87;2.60;;;;;;;-143.84;53.45;45106.19;5085335;28;20501;-78
2023/03/09 01:35:33;;;;;;;4.07;3.33;;;;;;;-143.84;53.85;45125.22;5074850;28;20501;-78
2023/03/09 01:38:02;;;;;;;3.17;2.90;;;;;;;-143.84;53.85;45117.63;5081152;28;20514;-78
2023/03/09 01:40:29;;;;;;;5.67;3.57;;;;;;;-143.84;53.78;45108.09;5081178;28;20459;-78
2023/03/09 01:42:57;;;;;;;4.20;3.27;;;;;;;-143.84;54.10;45085.25;5088096;28;20502;-78
2023/03/09 01:46:01;;;;;;;3.40;3.10;;;;;;;-143.84;54.13;45125.22;5085001;28;20447;-78
2023/03/09 01:48:29;;;;;;;3.93;3.10;;;;;;;-143.84;54.03;45104.28;5094243;28;20446;-78
2023/03/09 01:50:56;;;;;;;5.83;2.93;;;;;;;-143.84;54.26;45098.56;5095311;28;20476;-78
2023/03/09 01:53:25;;;;;;;4.63;2.93;;;;;;;-143.84;54.46;45125.22;5094550;28;20496;-78
2023/03/09 01:55:54;;;;;;;2.70;2.50;;;;;;;-143.84;54.62;45115.72;5094748;28;20470;-78
2023/03/09 01:58:24;;;;;;;4.07;2.50;;;;;;;-143.84;54.93;45108.09;5095027;28;20432;-78
2023/03/09 02:00:55;;;;;;;3.27;2.93;;;;;;;-143.84;55.11;45108.09;5094558;28;20428;-78
2023/03/09 02:03:26;;;;;;;4.83;2.70;;;;;;;-143.84;55.46;45115.72;5094329;28;20420;-78
2023/03/09 02:05:58;;;;;;;6.53;3.37;;;;;;;-143.84;55.75;45127.13;5094961;28;20442;-78
2023/03/09 02:08:29;;;;;;;3.60;3.00;;;;;;;-143.84;55.80;45111.91;5094801;28;21324;-78
2023/03/09 02:10:58;;;;;;;14.60;3.10;;;;;;;-143.84;56.33;45104.28;5094313;28;20953;-78
2023/03/09 02:13:29;;;;;;;2.70;2.50;;;;;;;-143.84;56.40;45110.00;5094079;28;20434;-78
2023/03/09 02:15:56;;;;;;;2.57;2.37;;;;;;;-143.84;56.27;45113.81;5079535;28;20488;-78
2023/03/09 02:18:24;;;;;;;7.23;3.00;;;;;;;-143.84;56.45;45136.66;5085374;28;21028;-78
2023/03/09 02:21:03;;;;;;;3.33;3.13;;;;;;;-143.84;56.40;45083.34;5083941;28;20462;-78
2023/03/09 02:23:40;;;;;;;2.97;2.77;;;;;;;-143.84;56.19;45111.91;5085246;28;20455;-77
2023/03/09 02:26:17;;;;;;;12.03;3.20;;;;;;;-143.84;56.31;45129.03;5094580;28;20435;-77
2023/03/09 02:28:46;;;;;;;2.93;2.50;;;;;;;-143.84;56.12;45108.09;5090637;28;20936;-78
2023/03/09 02:31:15;;;;;;;4.70;3.87;;;;;;;-143.84;55.97;45110.00;5076475;28;20443;-78
2023/03/09 02:33:42;;;;;;;6.70;3.47;;;;;;;-143.84;55.85;45178.56;5086447;28;20520;-78
2023/03/09 02:36:10;;;;;;;5.20;3.30;;;;;;;-143.84;56.00;45110.00;5083510;28;20532;-78
2023/03/09 02:38:37;;;;;;;5.17;3.97;;;;;;;-143.84;55.47;45111.91;5074396;28;20444;-78
2023/03/09 02:41:06;;;;;;;8.40;3.10;;;;;;;-143.84;55.54;45115.72;5073156;28;20505;-78
2023/03/09 02:43:37;;;;;;;4.10;3.43;;;;;;;-143.84;55.80;45104.28;5073441;28;20438;-78
2023/03/09 02:46:06;;;;;;;3.60;3.27;;;;;;;-143.84;55.94;45121.44;5073427;28;20433;-78
2023/03/09 02:48:33;;;;;;;11.00;3.77;;;;;;;-143.84;55.75;45111.91;5073585;28;20449;-78
2023/03/09 02:51:00;;;;;;;6.83;3.90;;;;;;;-143.84;56.39;45111.91;5073463;28;20435;-78
2023/03/09 02:53:27;;;;;;;4.70;3.90;;;;;;;-143.84;56.31;45142.38;5073351;28;20432;-78
2023/03/09 02:55:54;;;;;;;3.67;3.37;;;;;;;-143.84;56.59;45121.44;5080794;28;20437;-78
2023/03/09 02:58:21;;;;;;;3.80;3.40;;;;;;;-143.84;56.91;45094.78;5084498;28;20451;-78
2023/03/09 03:00:48;;;;;;;4.13;3.73;;;;;;;-143.84;57.17;45121.44;5085318;28;20942;-78
2023/03/09 03:03:19;;;;;;;4.40;3.30;;;;;;;-143.84;56.57;45113.81;5086155;28;20455;-78
2023/03/09 03:05:47;;;;;;;5.00;3.60;;;;;;;-143.84;56.75;45123.34;5084110;28;20457;-78
2023/03/09 03:08:14;;;;;;;5.73;3.60;;;;;;;-143.84;56.68;45132.84;5079323;28;20455;-78
2023/03/09 03:10:42;;;;;;;3.83;3.43;;;;;;;-143.84;56.45;45127.13;5078997;28;20466;-78
2023/03/09 03:13:09;;;;;;;3.27;3.00;;;;;;;-143.84;56.14;45094.78;5084551;28;21027;-78
2023/03/09 03:15:36;;;;;;;4.23;3.67;;;;;;;-143.84;56.22;45115.72;5072317;28;20442;-78
2023/03/09 03:18:04;;;;;;;4.27;3.87;;;;;;;-143.84;55.99;45115.72;5080256;28;20554;-79
2023/03/09 03:20:33;;;;;;;3.77;3.37;;;;;;;-143.84;56.05;45115.72;5081518;28;20955;-79
2023/03/09 03:23:00;;;;;;;9.67;4.87;;;;;;;-143.84;56.10;45110.00;5088755;28;20500;-79
2023/03/09 03:25:27;;;;;;;11.33;3.73;;;;;;;-143.84;56.40;45102.38;5092175;28;20460;-78
2023/03/09 03:27:54;;;;;;;8.40;3.97;;;;;;;-143.84;57.03;45132.84;5086155;28;20452;-77
2023/03/09 03:30:22;;;;;;;5.23;4.13;;;;;;;-143.84;56.81;45127.13;5078419;28;21028;-79
2023/03/09 03:32:53;;;;;;;4.40;4.00;;;;;;;-143.84;56.98;45144.28;5078102;28;20454;-78
2023/03/09 03:35:21;;;;;;;8.40;3.90;;;;;;;-143.84;57.25;45138.56;5079448;28;20948;-78
2023/03/09 03:37:49;;;;;;;4.40;4.07;;;;;;;-143.84;57.05;45098.56;5091325;28;20568;-78
2023/03/09 03:40:18;;;;;;;8.73;4.20;;;;;;;-143.84;57.52;45113.81;5073249;28;20477;-78
2023/03/09 03:42:46;;;;;;;4.43;3.70;;;;;;;-143.84;57.65;45092.88;5076417;28;20474;-78
2023/03/09 03:45:13;;;;;;;5.13;3.93;;;;;;;-143.84;58.08;45117.63;5080378;28;20499;-78
2023/03/09 03:47:41;;;;;;;8.00;4.00;;;;;;;-143.84;58.02;45127.13;5072159;28;20438;-78
2023/03/09 03:50:09;;;;;;;5.87;4.70;;;;;;;-143.84;58.26;45113.81;5072523;28;20439;-78
2023/03/09 03:52:36;;;;;;;6.23;4.60;;;;;;;-143.84;58.29;45140.47;5073451;28;20445;-78
2023/03/09 03:55:05;;;;;;;5.33;4.27;;;;;;;-143.84;58.42;45113.81;5081940;28;20517;-78
2023/03/09 03:57:33;;;;;;;9.40;4.43;;;;;;;-143.84;58.84;45094.78;5084843;28;20902;-78
2023/03/09 04:00:00;;;;;;;4.57;4.17;;;;;;;-143.84;59.14;45130.94;5071747;28;20455;-78
2023/03/09 04:02:27;;;;;;;7.60;4.30;;;;;;;-143.84;59.04;45113.81;5072073;28;20437;-78
2023/03/09 04:04:54;;;;;;;8.00;3.80;;;;;;;-143.84;58.93;45111.91;5073039;28;20439;-78
2023/03/09 04:07:22;;;;;;;9.43;4.80;;;;;;;-143.84;58.71;45142.38;5084474;28;20440;-81
2023/03/09 04:09:49;;;;;;;6.20;3.70;;;;;;;-143.84;58.68;45125.22;5079783;28;20540;-79
2023/03/09 04:12:17;;;;;;;5.93;3.70;;;;;;;-143.84;58.30;45123.34;5083251;28;20444;-77
2023/03/09 04:14:45;;;;;;;6.40;3.93;;;;;;;-143.84;58.50;45117.63;5074336;28;20514;-76
2023/03/09 04:17:12;;;;;;;5.10;4.67;;;;;;;-143.84;59.08;45113.81;5060590;28;20481;-78
2023/03/09 04:19:39;;;;;;;6.27;4.50;;;;;;;-143.84;58.82;45117.63;5084741;28;20805;-78
2023/03/09 04:22:07;;;;;;;6.60;4.40;;;;;;;-143.84;58.26;45115.72;5074348;28;20476;-78
2023/03/09 04:24:34;;;;;;;4.73;3.30;;;;;;;-143.84;58.31;45134.75;5073562;28;20444;-79
2023/03/09 04:27:01;;;;;;;4.40;3.60;;;;;;;-143.84;57.80;45127.13;5072697;28;20916;-78
2023/03/09 04:29:30;;;;;;;5.40;4.20;;;;;;;-143.84;57.81;45119.53;5080196;28;20436;-78
2023/03/09 04:31:57;;;;;;;5.20;3.60;;;;;;;-143.84;57.19;45127.13;5077636;28;20443;-78
2023/03/09 04:34:24;;;;;;;9.00;4.40;;;;;;;-143.84;57.32;45104.28;5079634;28;20449;-78
2023/03/09 04:36:51;;;;;;;6.10;4.20;;;;;;;-143.84;56.90;45104.28;5083904;28;20510;-81
2023/03/09 04:39:18;;;;;;;4.83;4.30;;;;;;;-143.84;57.40;45111.91;5091761;28;20470;-81
2023/03/09 04:41:46;;;;;;;5.03;3.97;;;;;;;-143.84;57.26;45096.66;5092666;28;20855;-81
2023/03/09 04:44:13;;;;;;;5.23;3.90;;;;;;;-143.84;57.12;45125.22;5091783;28;20485;-80
2023/03/09 04:46:41;;;;;;;4.73;4.17;;;;;;;-143.84;56.94;45115.72;5090658;28;21068;-72
2023/03/09 04:49:08;;;;;;;5.23;3.50;;;;;;;-143.84;57.12;45089.06;5086786;28;20944;-72
2023/03/09 04:51:36;;;;;;;6.57;4.77;;;;;;;-143.84;56.79;45130.94;5080229;28;20474;-73
2023/03/09 04:54:03;;;;;;;5.00;4.30;;;;;;;-143.84;56.75;45144.28;5078751;28;20523;-72
2023/03/09 04:56:30;;;;;;;11.67;3.70;;;;;;;-143.84;56.71;45117.63;5076630;28;21159;-72
2023/03/09 04:58:57;;;;;;;4.63;3.67;;;;;;;-143.84;56.32;45100.47;5079464;28;20449;-72
2023/03/09 05:01:25;;;;;;;3.90;3.50;;;;;;;-143.84;55.18;45117.63;5082212;28;20506;-72
2023/03/09 05:03:54;;;;;;;3.60;3.30;;;;;;;-143.84;53.69;45125.22;5083397;28;20495;-72
2023/03/09 05:06:21;;;;;;;7.77;3.53;;;;;;;-143.84;53.24;45123.34;5082453;28;20500;-72
2023/03/09 05:08:48;;;;;;;6.83;3.20;;;;;;;-143.84;53.18;45102.38;5081475;28;20450;-72
2023/03/09 05:11:15;;;;;;;3.70;3.40;;;;;;;-143.84;52.33;45119.53;5080232;28;20450;-72
2023/03/09 05:13:42;;;;;;;3.53;3.23;;;;;;;-143.84;52.18;45110.00;5084156;28;20453;-72
2023/03/09 05:16:09;;;;;;;5.83;3.23;;;;;;;-143.84;52.03;45125.22;5078559;28;20436;-72
2023/03/09 05:18:37;;;;;;;6.10;3.13;;;;;;;-143.84;51.68;45108.09;5073970;28;20529;-72
2023/03/09 05:21:08;;;;;;;11.00;4.03;;;;;;;-143.84;51.70;45115.72;5073288;28;20493;-72
2023/03/09 05:23:35;;;;;;;6.20;3.50;;;;;;;-143.84;51.63;45117.63;5075461;28;20444;-77
2023/03/09 05:26:06;;;;;;;3.30;2.70;;;;;;;-143.84;51.68;45100.47;5081930;28;20467;-77
2023/03/09 05:28:34;;;;;;;3.97;2.83;;;;;;;-143.84;51.82;45102.38;5079122;28;20447;-77
2023/03/09 05:31:01;;;;;;;3.23;2.87;;;;;;;-143.84;51.88;45102.38;5082064;28;21239;-77
2023/03/09 05:33:29;;;;;;;3.50;3.03;;;;;;;-143.84;52.55;45123.34;5089448;28;20544;-77
2023/03/09 05:35:56;;;;;;;7.27;3.70;;;;;;;-143.84;52.45;45100.47;5083068;28;20436;-77
2023/03/09 05:38:25;;;;;;;5.30;3.60;;;;;;;-143.84;52.53;45121.44;5084984;28;21320;-77
2023/03/09 05:40:52;;;;;;;7.33;3.90;;;;;;;-143.84;53.07;45127.13;5086667;28;20459;-77
2023/03/09 05:43:19;;;;;;;12.97;4.53;;;;;;;-143.84;53.02;45111.91;5085818;28;20458;-77
2023/03/09 05:45:55;;;;;;;5.03;3.90;;;;;;;-143.84;52.84;45102.38;5083625;28;20498;-77
2023/03/09 05:48:22;;;;;;;11.73;3.90;;;;;;;-143.84;53.36;45102.38;5081353;28;20522;-77
2023/03/09 05:50:49;;;;;;;4.70;3.70;;;;;;;-143.84;53.21;45159.50;5087467;28;20439;-75
2023/03/09 05:53:16;;;;;;;6.50;3.77;;;;;;;-143.84;53.33;45089.06;5093001;28;20518;-74
2023/03/09 05:55:45;;;;;;;6.50;3.57;;;;;;;-143.84;52.65;45102.38;5085555;28;20449;-74
2023/03/09 05:58:12;;;;;;;5.00;3.20;;;;;;;-143.84;52.56;45094.78;5081736;28;21714;-74
2023/03/09 06:00:39;;;;;;;4.87;3.67;;;;;;;-143.84;51.87;45090.97;5084447;28;20448;-74
2023/03/09 06:03:07;;;;;;;3.60;3.30;;;;;;;-143.84;50.94;45110.00;5080022;28;20448;-74
2023/03/09 06:05:34;;;;;;;6.60;3.10;;;;;;;-143.84;50.29;45094.78;5082511;28;20476;-74
2023/03/09 06:08:01;;;;;;;10.63;2.87;;;;;;;-143.84;49.53;45111.91;5077305;28;20888;-75
2023/03/09 06:10:28;;;;;;;3.40;2.80;;;;;;;-143.84;48.08;45102.38;5077814;28;20575;-75
2023/03/09 06:12:57;;;;;;;14.57;2.80;;;;;;;-143.84;46.73;45100.47;5076973;28;20440;-75
2023/03/09 06:15:24;;;;;;;4.20;2.73;;;;;;;-143.84;46.47;45117.63;5075607;28;20510;-75
2023/03/09 06:17:51;;;;;;;4.30;3.20;;;;;;;-143.84;44.84;45094.78;5078858;28;20478;-75
2023/03/09 06:20:18;;;;;;;2.90;2.70;;;;;;;-143.84;44.35;45085.25;5076989;28;20797;-75
2023/03/09 06:22:46;;;;;;;4.77;3.30;;;;;;;-143.84;44.48;45094.78;5079867;28;20449;-75
2023/03/09 06:25:13;;;;;;;3.43;3.10;;;;;;;-143.84;44.68;45102.38;5080454;28;20451;-75
2023/03/09 06:27:41;;;;;;;8.73;3.40;;;;;;;-143.84;44.19;45094.78;5082538;28;20513;-75
2023/03/09 06:30:12;;;;;;;8.67;3.53;;;;;;;-143.84;43.99;45085.25;5084252;28;20525;-75
2023/03/09 06:32:39;;;;;;;9.10;3.37;;;;;;;-143.84;44.21;45096.66;5081313;28;20463;-75
2023/03/09 06:35:07;;;;;;;5.50;3.80;;;;;;;-143.84;43.57;45104.28;5080150;28;20444;-75
2023/03/09 06:37:34;;;;;;;5.60;2.67;;;;;;;-143.84;42.29;45085.25;5083894;28;20541;-75
2023/03/09 06:40:01;;;;;;;4.17;2.83;;;;;;;-143.84;41.94;45092.88;5080529;28;20455;-75
2023/03/09 06:42:28;;;;;;;4.97;2.73;;;;;;;-143.84;40.37;45062.41;5084767;28;20464;-75
2023/03/09 06:44:55;;;;;;;4.37;2.53;;;;;;;-143.84;40.12;45039.53;5084275;28;20446;-75
2023/03/09 06:47:24;;;;;;;9.10;2.60;;;;;;;-143.84;39.76;45075.72;5084742;28;21271;-75
2023/03/09 06:49:52;;;;;;;3.67;2.80;;;;;;;-143.84;39.17;45083.34;5078044;28;20514;-75
2023/03/09 06:52:19;;;;;;;3.30;2.07;;;;;;;-143.84;38.79;45071.91;5081512;28;20488;-75
2023/03/09 06:54:46;;;;;;;2.63;2.43;;;;;;;-143.84;39.15;45049.06;5085717;28;20781;-75
2023/03/09 06:57:13;;;;;;;10.50;3.37;;;;;;;-143.84;39.40;45064.31;5081528;28;20447;-75
2023/03/09 06:59:41;;;;;;;7.90;3.17;;;;;;;-143.84;38.31;45045.25;5088049;28;20950;-75
2023/03/09 07:02:11;;;;;;;5.20;4.00;;;;;;;-143.84;39.29;45064.31;5080135;28;20457;-76
2023/03/09 07:04:41;;;;;;;6.60;2.73;;;;;;;-143.84;38.22;45087.16;5079570;28;20440;-75
2023/03/09 07:07:08;;;;;;;32.50;13.30;;;;;;;-143.84;40.68;45068.13;5073945;28;20443;-75
2023/03/09 07:09:36;;;;;;;33.43;14.17;;;;;;;-143.84;41.10;45054.78;5075093;28;20440;-75
2023/03/09 07:12:03;;;;;;;27.77;11.83;;;;;;;-143.84;41.07;45071.91;5075536;28;20973;-75
2023/03/09 07:14:30;;;;;;;28.63;15.33;;;;;;;-143.84;41.49;45050.97;5083058;28;20957;-75
2023/03/09 07:16:58;;;;;;;34.07;15.37;;;;;;;-143.84;42.58;45052.88;5086402;28;20502;-75
2023/03/09 07:19:25;;;;;;;34.63;16.10;;;;;;;-143.84;42.21;45049.06;5074848;28;20488;-75
2023/03/09 07:21:54;;;;;;;46.17;17.77;;;;;;;-143.84;41.89;45089.06;5074885;28;20503;-75
2023/03/09 07:24:21;;;;;;;45.10;16.70;;;;;;;-143.84;42.32;45049.06;5078297;28;20466;-75
2023/03/09 07:26:49;;;;;;;18.10;10.43;;;;;;;-143.84;42.08;45056.69;5080042;28;20580;-76
2023/03/09 07:29:17;;;;;;;22.03;7.73;;;;;;;-143.84;40.72;45081.44;5081362;28;20487;-75
2023/03/09 07:31:44;;;;;;;13.20;6.20;;;;;;;-143.84;39.71;45050.97;5088662;28;20971;-75
2023/03/09 07:34:11;;;;;;;12.90;6.90;;;;;;;-143.84;39.64;45041.44;5082660;28;20507;-75
2023/03/09 07:36:39;;;;;;;17.23;7.93;;;;;;;-143.84;40.50;45050.97;5080509;28;20480;-75
2023/03/09 07:39:07;;;;;;;11.07;6.73;;;;;;;-143.84;40.60;45043.34;5069768;28;20476;-75
2023/03/09 07:41:34;;;;;;;17.93;7.90;;;;;;;-143.84;41.04;45064.31;5079896;28;21313;-75
2023/03/09 07:44:02;;;;;;;8.23;7.43;;;;;;;-143.84;40.42;45050.97;5073992;28;20448;-75
2023/03/09 07:46:29;;;;;;;24.03;8.00;;;;;;;-143.84;40.12;45052.88;5071815;28;20452;-75
2023/03/09 07:48:56;;;;;;;18.83;8.17;;;;;;;-143.84;39.41;45031.94;5073023;28;20448;-75
2023/03/09 07:51:23;;;;;;;17.33;9.30;;;;;;;-143.84;39.94;45068.13;5076054;28;20524;-75
2023/03/09 07:53:50;;;;;;;28.20;10.00;;;;;;;-143.84;40.43;45052.88;5075736;28;20456;-75
2023/03/09 07:56:19;;;;;;;6.00;5.00;;;;;;;-143.84;38.18;45056.69;5074807;28;20456;-75
2023/03/09 07:58:46;;;;;;;14.07;8.10;;;;;;;-143.84;39.09;45030.03;5075249;28;20476;-75
2023/03/09 08:01:17;;;;;;;16.30;6.50;;;;;;;-143.84;37.90;45045.25;5077156;28;20429;-75
2023/03/09 08:03:44;;;;;;;14.77;8.60;;;;;;;-143.84;37.85;45022.41;5076608;28;20455;-75
2023/03/09 08:06:12;;;;;;;8.73;6.57;;;;;;;-143.84;37.07;45026.22;5075610;28;20449;-75
2023/03/09 08:08:40;;;;;;;10.93;5.43;;;;;;;-143.84;37.38;45056.69;5075787;28;20460;-75
2023/03/09 08:11:07;;;;;;;8.47;5.30;;;;;;;-143.84;37.35;45031.94;5074049;28;20476;-75
2023/03/09 08:13:36;;;;;;;5.50;4.37;;;;;;;-143.84;37.19;45030.03;5078566;28;20492;-76
2023/03/09 08:16:06;;;;;;;21.63;8.67;;;;;;;-143.84;37.67;45041.44;5073541;28;20490;-75
2023/03/09 08:18:34;;;;;;;15.83;9.70;;;;;;;-143.84;37.45;45041.44;5076246;28;20545;-76
2023/03/09 08:21:06;;;;;;;19.93;9.50;;;;;;;-143.84;37.87;45035.75;5076551;28;20448;-75
2023/03/09 08:23:35;;;;;;;19.97;8.30;;;;;;;-143.84;37.66;45026.22;5076966;28;20856;-75
2023/03/09 08:26:02;;;;;;;13.13;8.47;;;;;;;-143.84;37.55;45049.06;5076323;28;20452;-75
2023/03/09 08:28:29;;;;;;;11.90;7.37;;;;;;;-143.84;37.40;45010.97;5082459;28;20501;-75
2023/03/09 08:30:58;;;;;;;14.33;7.57;;;;;;;-143.84;37.21;45066.22;5075610;28;20497;-75
2023/03/09 08:33:26;;;;;;;16.27;7.53;;;;;;;-143.84;36.88;45052.88;5070683;28;21009;-75
2023/03/09 08:35:53;;;;;;;12.90;7.27;;;;;;;-143.84;36.45;45043.34;5074152;28;20469;-75
2023/03/09 08:38:20;;;;;;;12.33;5.60;;;;;;;-143.84;35.49;45005.28;5070734;28;20484;-75
2023/03/09 08:40:47;;;;;;;12.97;7.40;;;;;;;-143.84;35.22;45037.66;5074550;28;20965;-75
2023/03/09 08:43:14;;;;;;;9.37;6.10;;;;;;;-143.84;35.85;45026.22;5075585;28;20445;-75
2023/03/09 08:45:42;;;;;;;11.10;5.97;;;;;;;-143.84;35.94;45016.69;5068960;28;20425;-75
2023/03/09 08:48:10;;;;;;;12.23;6.63;;;;;;;-143.84;35.00;45014.78;5073103;28;20444;-75
2023/03/09 08:50:38;;;;;;;27.67;6.70;;;;;;;-143.84;35.31;45010.97;5070135;28;20464;-75
2023/03/09 08:53:05;;;;;;;16.13;7.93;;;;;;;-143.84;35.10;45026.22;5081934;28;20448;-75
2023/03/09 08:55:32;;;;;;;22.73;6.70;;;;;;;-143.84;33.80;45024.31;5076703;28;20874;-75
2023/03/09 08:57:59;;;;;;;13.37;7.00;;;;;;;-143.84;33.74;45018.59;5072869;28;20437;-75
2023/03/09 09:00:27;;;;;;;13.93;5.70;;;;;;;-143.84;33.20;45005.28;5073878;28;20456;-75
2023/03/09 09:02:54;;;;;;;8.73;5.70;;;;;;;-143.84;34.39;45016.69;5077249;28;20451;-75
2023/03/09 09:05:23;;;;;;;12.43;5.07;;;;;;;-143.84;32.92;45022.41;5078763;28;20445;-75
2023/03/09 09:07:50;;;;;;;27.57;5.87;;;;;;;-143.84;33.70;45024.31;5076853;28;20451;-75
2023/03/09 09:10:17;;;;;;;9.17;5.37;;;;;;;-143.84;33.25;45001.47;5081688;28;20444;-75
2023/03/09 09:12:44;;;;;;;13.43;4.90;;;;;;;-143.84;32.67;45014.78;5077907;28;20440;-75
2023/03/09 09:15:13;;;;;;;19.83;3.93;;;;;;;-143.84;32.51;45010.97;5075916;28;20444;-75
2023/03/09 09:17:41;;;;;;;5.67;3.70;;;;;;;-143.84;32.49;44993.84;5078546;28;21004;-75
2023/03/09 09:20:10;;;;;;;4.70;3.33;;;;;;;-143.84;32.09;45018.59;5079069;28;20568;-76
2023/03/09 09:22:42;;;;;;;4.93;3.27;;;;;;;-143.84;32.57;45009.09;5078637;28;20525;-75
2023/03/09 09:25:10;;;;;;;5.63;3.23;;;;;;;-143.84;32.05;45014.78;5079546;28;20447;-75
2023/03/09 09:27:37;;;;;;;7.10;3.53;;;;;;;-143.84;32.00;45001.47;5081606;28;20444;-75
2023/03/09 09:30:05;;;;;;;6.73;2.90;;;;;;;-143.84;31.97;44995.75;5084322;28;20520;-75
2023/03/09 09:32:32;;;;;;;6.13;2.40;;;;;;;-143.84;31.55;45031.94;5078941;28;20991;-75
2023/03/09 09:35:00;;;;;;;4.23;2.50;;;;;;;-143.84;30.78;45007.19;5078687;28;20459;-75
2023/03/09 09:37:28;;;;;;;3.50;2.67;;;;;;;-143.84;31.41;44982.41;5080505;28;20483;-75
2023/03/09 09:39:58;;;;;;;3.20;2.50;;;;;;;-143.84;31.26;45001.47;5077064;28;20510;-75
2023/03/09 09:42:30;;;;;;;12.60;3.03;;;;;;;-143.84;31.27;45022.41;5076506;28;20484;-75
2023/03/09 09:44:58;;;;;;;7.60;3.40;;;;;;;-143.84;31.42;44995.75;5080765;28;20448;-75
2023/03/09 09:47:29;;;;;;;8.63;3.80;;;;;;;-143.84;32.45;45012.88;5085513;28;20479;-75
2023/03/09 09:49:59;;;;;;;8.47;3.80;;;;;;;-143.84;32.46;44986.22;5083599;28;20961;-75
2023/03/09 09:52:47;;;;;;;5.47;3.77;;;;;;;-143.84;31.61;44984.31;5085616;28;20450;-75
2023/03/09 09:55:23;;;;;;;7.60;3.00;;;;;;;-143.84;32.15;45010.97;5083481;28;20528;-75
2023/03/09 09:57:59;;;;;;;5.90;4.33;;;;;;;-143.84;32.41;45010.97;5078910;28;20497;-75
2023/03/09 10:00:34;;;;;;;8.93;6.13;;;;;;;-143.84;33.19;44986.22;5085053;28;20539;-75
2023/03/09 10:03:19;;;;;;;9.30;4.57;;;;;;;-143.84;34.00;44999.56;5080452;28;20505;-74
2023/03/09 10:05:51;;;;;;;7.20;5.40;;;;;;;-143.84;33.31;45003.38;5080123;28;20513;-74
2023/03/09 10:08:35;;;;;;;8.90;5.80;;;;;;;-143.84;33.45;44991.94;5082103;28;20451;-75
2023/03/09 10:11:12;;;;;;;6.10;4.80;;;;;;;-143.84;34.06;45009.09;5084589;28;20462;-74
2023/03/09 10:13:44;;;;;;;8.67;4.47;;;;;;;-143.84;34.17;45005.28;5081653;28;20512;-74
2023/03/09 10:16:16;;;;;;;6.17;4.20;;;;;;;-143.84;34.64;45005.28;5084801;28;20513;-74
2023/03/09 10:18:49;;;;;;;9.07;5.93;;;;;;;-143.84;35.13;45041.44;5080692;28;21344;-77
2023/03/09 10:21:23;;;;;;;8.63;5.03;;;;;;;-143.84;35.90;45014.78;5088570;28;20454;-74
2023/03/09 10:23:51;;;;;;;5.17;4.40;;;;;;;-143.84;36.01;45026.22;5082904;28;20447;-74
2023/03/09 10:26:40;;;;;;;7.77;3.87;;;;;;;-143.84;35.72;45039.53;5080604;28;20448;-74
2023/03/09 10:29:16;;;;;;;7.90;4.23;;;;;;;-143.84;35.42;45003.38;5079432;28;21292;-74
2023/03/09 10:31:51;;;;;;;6.83;4.27;;;;;;;-143.84;35.44;45022.41;5083156;28;20436;-74
2023/03/09 10:34:23;;;;;;;7.50;3.73;;;;;;;-143.84;35.58;44990.03;5085045;28;20447;-74
2023/03/09 10:37:00;;;;;;;6.27;3.73;;;;;;;-143.84;34.76;45020.50;5088171;28;20486;-74
2023/03/09 10:39:34;;;;;;;6.10;3.63;;;;;;;-143.84;34.44;44984.31;5086601;28;20544;-74
2023/03/09 10:42:17;;;;;;;4.23;3.03;;;;;;;-143.84;35.47;44999.56;5085774;28;20451;-74
2023/03/09 10:44:51;;;;;;;6.00;3.20;;;;;;;-143.84;34.25;45009.09;5086728;28;20509;-72
2023/03/09 10:47:18;;;;;;;4.33;2.60;;;;;;;-143.84;34.45;45009.09;5084743;28;20455;-72
2023/03/09 10:50:08;;;;;;;5.63;2.70;;;;;;;-143.84;34.18;45007.19;5083230;28;20436;-72
2023/03/09 10:52:35;;;;;;;7.03;3.80;;;;;;;-143.84;34.73;44990.03;5070253;28;20448;-72
2023/03/09 10:55:23;;;;;;;4.63;3.60;;;;;;;-143.84;34.48;45018.59;5082773;28;20482;-72
2023/03/09 10:57:58;;;;;;;5.57;4.00;;;;;;;-143.84;35.56;45010.97;5074632;28;20444;-72
2023/03/09 11:00:26;;;;;;;6.13;3.30;;;;;;;-143.84;34.42;45018.59;5071064;28;21001;-72
2023/03/09 11:02:55;;;;;;;8.93;3.00;;;;;;;-143.84;35.14;45018.59;5075946;28;20445;-72
2023/03/09 11:05:24;;;;;;;3.00;2.70;;;;;;;-143.84;35.42;45022.41;5072092;28;20440;-72
2023/03/09 11:07:53;;;;;;;4.80;2.63;;;;;;;-143.84;35.39;45030.03;5077056;28;20456;-72
2023/03/09 11:10:29;;;;;;;3.40;2.80;;;;;;;-143.84;36.15;45030.03;5074003;28;20506;-72
2023/03/09 11:12:59;;;;;;;4.27;2.70;;;;;;;-143.84;35.71;45030.03;5074089;28;20452;-72
2023/03/09 11:15:29;;;;;;;5.83;3.50;;;;;;;-143.84;36.24;45037.66;5071383;28;21144;-72
2023/03/09 11:17:58;;;;;;;3.83;3.43;;;;;;;-143.84;36.56;45024.31;5075783;28;20455;-72
2023/03/09 11:20:29;;;;;;;3.63;3.23;;;;;;;-143.84;36.46;45056.69;5075173;28;20506;-72
2023/03/09 11:23:09;;;;;;;3.50;2.90;;;;;;;-143.84;36.64;45033.84;5077595;28;20835;-72